createdAt,value
2023-10-12T00:00:20.563Z,6.57
2023-10-12T00:02:49.809Z,6.50
2023-10-12T00:05:21.657Z,6.47
2023-10-12T00:07:51.279Z,6.22
2023-10-12T00:10:19.249Z,6.05
2023-10-12T00:12:47.993Z,5.32
2023-10-12T00:15:23.342Z,5.82
2023-10-12T00:17:58.646Z,5.43
2023-10-12T00:20:47.345Z,5.85
2023-10-12T00:23:15.817Z,5.30
2023-10-12T00:25:49.193Z,4.80
2023-10-12T00:28:21.774Z,5.35
2023-10-12T00:30:51.550Z,5.53
2023-10-12T00:33:20.279Z,5.95
2023-10-12T00:36:21.297Z,6.50
2023-10-12T00:38:58.156Z,5.70
2023-10-12T00:41:26.541Z,5.32
2023-10-12T00:44:08.394Z,6.03
2023-10-12T00:46:39.826Z,5.85
2023-10-12T00:49:18.036Z,6.47
2023-10-12T00:51:53.718Z,7.05
2023-10-12T00:54:28.825Z,6.50
2023-10-12T00:56:58.330Z,7.05
2023-10-12T00:59:28.395Z,6.50
2023-10-12T01:01:56.847Z,6.40
2023-10-12T01:04:24.731Z,6.03
2023-10-12T01:06:52.670Z,6.22
2023-10-12T01:09:20.907Z,6.18
2023-10-12T01:12:12.755Z,5.75
2023-10-12T01:14:45.204Z,6.00
2023-10-12T01:17:25.402Z,5.35
2023-10-12T01:19:53.664Z,5.47
2023-10-12T01:22:27.390Z,5.40
2023-10-12T01:24:55.883Z,5.93
2023-10-12T01:27:24.311Z,5.50
2023-10-12T01:29:53.189Z,6.22
2023-10-12T01:32:21.668Z,5.93
2023-10-12T01:34:54.331Z,6.28
2023-10-12T01:37:22.781Z,5.72
2023-10-12T01:40:20.565Z,6.53
2023-10-12T01:42:48.477Z,6.68
2023-10-12T01:45:20.844Z,6.63
2023-10-12T01:47:55.834Z,6.80
2023-10-12T01:50:29.175Z,6.72
2023-10-12T01:53:00.519Z,6.30
2023-10-12T01:55:32.279Z,6.80
2023-10-12T01:58:00.944Z,6.68
2023-10-12T02:00:31.322Z,6.38
2023-10-12T02:03:19.351Z,6.03
2023-10-12T02:05:59.971Z,5.85
2023-10-12T02:08:41.425Z,5.88
2023-10-12T02:11:27.359Z,6.40
2023-10-12T02:13:55.768Z,7.50
2023-10-12T02:16:33.584Z,6.68
2023-10-12T02:19:06.473Z,6.60
2023-10-12T02:21:39.262Z,6.30
2023-10-12T02:24:10.426Z,6.35
2023-10-12T02:26:50.293Z,5.60
2023-10-12T02:29:21.152Z,5.63
2023-10-12T02:31:53.371Z,6.35
2023-10-12T02:34:28.583Z,6.63
2023-10-12T02:37:09.814Z,5.10
2023-10-12T02:42:19.663Z,5.70
2023-10-12T02:44:49.460Z,5.25
2023-10-12T02:47:23.591Z,4.88
2023-10-12T02:49:52.326Z,5.20
2023-10-12T02:52:21.969Z,6.25
2023-10-12T02:54:53.356Z,5.65
2023-10-12T03:00:10.118Z,6.90
2023-10-12T03:02:38.075Z,6.85
2023-10-12T03:05:09.910Z,7.50
2023-10-12T03:07:40.373Z,7.40
2023-10-12T03:10:18.372Z,7.82
2023-10-12T03:12:46.627Z,7.88
2023-10-12T03:15:15.057Z,7.63
2023-10-12T03:17:46.626Z,7.57
2023-10-12T03:20:23.520Z,8.35
2023-10-12T03:22:54.687Z,7.97
2023-10-12T03:25:37.153Z,7.43
2023-10-12T03:28:13.747Z,7.85
2023-10-12T03:30:54.658Z,7.22
2023-10-12T03:33:29.350Z,7.63
2023-10-12T03:36:04.270Z,6.97
2023-10-12T03:38:35.298Z,7.38
2023-10-12T03:41:21.547Z,8.25
2023-10-12T03:43:54.809Z,7.75
2023-10-12T03:46:29.984Z,7.93
2023-10-12T03:49:18.439Z,7.28
2023-10-12T03:51:47.609Z,7.20
2023-10-12T03:54:41.859Z,7.57
2023-10-12T03:57:24.149Z,7.68
2023-10-12T04:00:07.397Z,8.18
2023-10-12T04:02:52.349Z,8.18
2023-10-12T04:05:32.636Z,8.43
2023-10-12T04:08:06.948Z,13.80
2023-10-12T04:10:47.613Z,14.02
2023-10-12T04:13:30.181Z,12.93
2023-10-12T04:16:06.192Z,12.20
2023-10-12T04:18:34.542Z,14.18
2023-10-12T04:21:05.291Z,11.70
2023-10-12T04:23:36.008Z,13.98
2023-10-12T04:26:16.770Z,12.32
2023-10-12T04:28:57.345Z,12.38
2023-10-12T04:31:34.590Z,11.65
2023-10-12T04:34:06.320Z,9.85
2023-10-12T04:36:36.526Z,8.35
2023-10-12T04:39:17.057Z,9.05
2023-10-12T04:41:48.228Z,8.20
2023-10-12T04:44:25.292Z,8.35
2023-10-12T04:47:21.703Z,7.07
2023-10-12T04:49:52.427Z,7.38
2023-10-12T04:52:26.050Z,6.40
2023-10-12T04:55:22.212Z,7.47
2023-10-12T04:58:10.450Z,5.95
2023-10-12T05:00:50.066Z,6.85
2023-10-12T05:03:27.042Z,7.22
2023-10-12T05:05:58.875Z,7.15
2023-10-12T05:08:28.624Z,7.05
2023-10-12T05:10:56.524Z,6.60
2023-10-12T05:13:25.834Z,7.45
2023-10-12T05:15:56.586Z,7.40
2023-10-12T05:18:25.698Z,7.78
2023-10-12T05:20:54.276Z,6.88
2023-10-12T05:23:22.924Z,7.90
2023-10-12T05:25:54.177Z,8.38
2023-10-12T05:28:28.462Z,9.50
2023-10-12T05:31:00.907Z,8.35
2023-10-12T05:33:35.601Z,8.02
2023-10-12T05:36:10.331Z,8.48
2023-10-12T05:38:39.027Z,9.73
2023-10-12T05:41:09.962Z,7.18
2023-10-12T05:43:41.152Z,8.25
2023-10-12T05:48:47.227Z,9.20
2023-10-12T05:51:20.030Z,9.05
2023-10-12T05:53:50.129Z,8.43
2023-10-12T05:56:20.962Z,9.05
2023-10-12T05:58:48.976Z,8.20
2023-10-12T06:04:07.348Z,10.23
2023-10-12T06:09:26.232Z,8.85
2023-10-12T06:11:55.996Z,10.38
2023-10-12T06:14:24.560Z,10.23
2023-10-12T06:17:04.208Z,9.80
2023-10-12T06:19:38.508Z,10.80
2023-10-12T06:22:24.777Z,10.70
2023-10-12T06:24:56.195Z,17.15
2023-10-12T06:27:24.722Z,17.92
2023-10-12T06:29:54.662Z,12.63
2023-10-12T06:32:36.065Z,12.48
2023-10-12T06:37:54.085Z,13.02
2023-10-12T06:40:25.139Z,13.75
2023-10-12T06:43:13.648Z,14.23
2023-10-12T06:45:55.618Z,14.07
2023-10-12T06:48:25.118Z,13.77
2023-10-12T06:51:03.748Z,16.20
2023-10-12T06:53:38.322Z,15.05
2023-10-12T06:59:22.998Z,17.13
2023-10-12T07:01:54.167Z,16.30
2023-10-12T07:04:42.740Z,16.17
2023-10-12T07:07:13.346Z,18.55
2023-10-12T07:09:42.249Z,18.45
2023-10-12T07:12:11.478Z,18.02
2023-10-12T07:14:44.093Z,17.05
2023-10-12T07:17:12.105Z,16.60
2023-10-12T07:19:42.325Z,16.02
2023-10-12T07:22:16.982Z,15.33
2023-10-12T07:24:45.113Z,17.80
2023-10-12T07:27:16.784Z,16.52
2023-10-12T07:29:45.957Z,18.25
2023-10-12T07:32:33.178Z,15.20
2023-10-12T07:35:18.794Z,15.85
2023-10-12T07:37:48.529Z,14.75
2023-10-12T07:40:19.576Z,14.25
2023-10-12T07:45:19.662Z,14.05
2023-10-12T07:47:50.552Z,14.10
2023-10-12T07:50:26.990Z,13.18
2023-10-12T07:53:23.482Z,15.32
2023-10-12T07:56:01.943Z,14.00
2023-10-12T07:58:31.044Z,12.95
2023-10-12T08:01:17.907Z,13.07
2023-10-12T08:03:52.269Z,13.02
2023-10-12T08:06:32.217Z,13.00
2023-10-12T08:09:06.507Z,12.90
2023-10-12T08:11:36.623Z,12.82
2023-10-12T08:14:23.178Z,13.57
2023-10-12T08:17:09.965Z,13.70
2023-10-12T08:19:41.287Z,13.15
2023-10-12T08:22:26.748Z,13.13
2023-10-12T08:24:58.370Z,14.63
2023-10-12T08:27:40.803Z,13.25
2023-10-12T08:30:31.654Z,13.63
2023-10-12T08:33:00.616Z,14.38
2023-10-12T08:36:01.880Z,14.07
2023-10-12T08:38:41.742Z,15.52
2023-10-12T08:41:28.043Z,17.17
2023-10-12T08:44:06.164Z,14.38
2023-10-12T08:46:58.012Z,15.18
2023-10-12T08:49:35.683Z,14.95
2023-10-12T08:52:20.151Z,15.85
2023-10-12T08:54:54.625Z,13.32
2023-10-12T08:57:36.615Z,13.20
2023-10-12T09:00:24.910Z,13.32
2023-10-12T09:03:01.701Z,13.15
2023-10-12T09:05:31.509Z,12.73
2023-10-12T09:08:23.356Z,12.13
2023-10-12T09:10:59.457Z,11.40
2023-10-12T09:13:38.141Z,11.55
2023-10-12T09:16:06.594Z,11.15
2023-10-12T09:18:44.641Z,10.95
2023-10-12T09:21:23.248Z,11.20
2023-10-12T09:24:09.069Z,11.43
2023-10-12T09:26:38.843Z,11.00
2023-10-12T09:29:07.506Z,9.30
2023-10-12T09:31:39.223Z,10.88
2023-10-12T09:34:10.911Z,10.43
2023-10-12T09:36:45.031Z,11.32
2023-10-12T09:39:13.813Z,9.35
2023-10-12T09:41:42.521Z,10.07
2023-10-12T09:44:14.282Z,10.75
2023-10-12T09:46:48.569Z,9.88
2023-10-12T09:49:23.591Z,9.13
2023-10-12T09:51:55.725Z,12.43
2023-10-12T09:54:31.462Z,12.60
2023-10-12T09:57:06.229Z,10.52
2023-10-12T09:59:39.869Z,11.02
2023-10-12T10:02:28.305Z,9.95
2023-10-12T10:05:13.207Z,9.80
2023-10-12T10:07:43.811Z,8.95
2023-10-12T10:10:18.087Z,10.02
2023-10-12T10:12:46.158Z,13.88
2023-10-12T10:15:22.562Z,10.82
2023-10-12T10:17:54.264Z,12.43
2023-10-12T10:20:26.056Z,9.10
2023-10-12T10:22:58.240Z,10.15
2023-10-12T10:25:29.788Z,9.57
2023-10-12T10:27:58.247Z,9.77
2023-10-12T10:30:26.581Z,9.45
2023-10-12T10:33:14.368Z,9.55
2023-10-12T10:36:01.397Z,8.30
2023-10-12T10:38:36.069Z,8.32
2023-10-12T10:41:09.003Z,9.07
2023-10-12T10:43:41.380Z,11.48
2023-10-12T10:46:12.325Z,8.52
2023-10-12T10:53:57.109Z,8.95
2023-10-12T10:56:37.230Z,8.23
2023-10-12T10:59:08.670Z,8.63
2023-10-12T11:01:37.160Z,8.75
2023-10-12T11:04:10.036Z,9.30
2023-10-12T11:06:39.590Z,9.18
2023-10-12T11:09:10.152Z,8.50
2023-10-12T11:11:50.914Z,8.77
2023-10-12T11:14:19.551Z,8.27
2023-10-12T11:16:47.968Z,7.32
2023-10-12T11:19:19.705Z,8.50
2023-10-12T11:21:53.336Z,8.45
2023-10-12T11:24:25.397Z,8.77
2023-10-12T11:26:57.133Z,7.90
2023-10-12T11:29:26.134Z,8.00
2023-10-12T11:32:11.175Z,7.50
2023-10-12T11:34:46.714Z,7.88
2023-10-12T11:37:15.801Z,8.63
2023-10-12T11:39:44.665Z,8.48
2023-10-12T11:42:16.034Z,8.63
2023-10-12T11:44:44.920Z,7.88
2023-10-12T11:47:39.283Z,8.60
2023-10-12T11:50:11.351Z,8.27
2023-10-12T11:52:41.841Z,7.88
2023-10-12T11:55:20.221Z,8.00
2023-10-12T11:57:56.013Z,8.02
2023-10-12T12:00:32.488Z,7.07
2023-10-12T12:03:01.565Z,7.60
2023-10-12T12:05:31.813Z,7.65
2023-10-12T12:08:00.784Z,6.65
2023-10-12T12:10:41.003Z,6.35
2023-10-12T12:13:13.564Z,7.18
2023-10-12T12:15:44.702Z,7.05
2023-10-12T12:20:59.485Z,6.65
2023-10-12T12:23:36.201Z,6.95
2023-10-12T12:26:15.621Z,6.55
2023-10-12T12:28:46.574Z,6.75
2023-10-12T12:31:15.944Z,6.55
2023-10-12T12:33:47.473Z,7.18
2023-10-12T12:36:24.681Z,6.68
2023-10-12T12:38:59.237Z,6.88
2023-10-12T12:41:27.186Z,6.45
2023-10-12T12:44:00.370Z,7.30
2023-10-12T12:46:31.336Z,5.68
2023-10-12T12:49:00.050Z,5.28
2023-10-12T12:51:28.304Z,6.60
2023-10-12T12:53:56.239Z,4.95
2023-10-12T12:56:26.510Z,5.15
2023-10-12T12:58:56.014Z,6.13
2023-10-12T13:01:25.516Z,5.70
2023-10-12T13:03:56.865Z,4.95
2023-10-12T13:06:28.032Z,5.60
2023-10-12T13:11:24.165Z,5.68
2023-10-12T13:13:52.268Z,5.78
2023-10-12T13:16:20.222Z,5.68
2023-10-12T13:18:48.624Z,5.60
2023-10-12T13:21:18.485Z,6.20
2023-10-12T13:23:47.666Z,5.95
2023-10-12T13:26:19.057Z,5.97
2023-10-12T13:28:48.619Z,5.22
2023-10-12T13:31:17.666Z,6.10
2023-10-12T13:33:45.770Z,5.57
2023-10-12T13:36:15.081Z,5.75
2023-10-12T13:38:43.488Z,5.60
2023-10-12T13:41:15.517Z,5.80
2023-10-12T13:43:49.649Z,5.78
2023-10-12T13:46:18.264Z,5.30
2023-10-12T13:48:50.564Z,5.40
2023-10-12T13:51:22.133Z,5.72
2023-10-12T13:53:53.502Z,5.43
2023-10-12T13:56:25.708Z,6.32
2023-10-12T13:58:59.628Z,6.38
2023-10-12T14:01:34.829Z,16.75
2023-10-12T14:04:03.293Z,8.25
2023-10-12T14:06:32.266Z,7.00
2023-10-12T14:09:00.490Z,6.22
2023-10-12T14:11:28.294Z,7.72
2023-10-12T14:13:56.135Z,7.30
2023-10-12T14:16:24.078Z,14.73
2023-10-12T14:18:52.036Z,7.72
2023-10-12T14:21:20.813Z,7.13
2023-10-12T14:23:50.371Z,7.93
2023-10-12T14:26:19.773Z,7.40
2023-10-12T14:28:52.035Z,6.85
2023-10-12T14:31:24.408Z,6.40
2023-10-12T14:33:53.747Z,8.02
2023-10-12T14:36:22.247Z,11.18
2023-10-12T14:38:51.613Z,12.35
2023-10-12T14:41:19.457Z,9.15
2023-10-12T14:43:48.855Z,6.30
2023-10-12T14:46:20.479Z,6.30
2023-10-12T14:48:53.426Z,6.35
2023-10-12T14:51:30.773Z,10.00
2023-10-12T14:53:58.794Z,12.80
2023-10-12T14:56:31.333Z,8.80
2023-10-12T14:58:59.477Z,7.78
2023-10-12T15:01:30.975Z,7.05
2023-10-12T15:03:59.683Z,56.00
2023-10-12T15:06:33.279Z,20.10
2023-10-12T15:09:01.593Z,6.53
2023-10-12T15:11:32.089Z,7.70
2023-10-12T15:14:01.960Z,7.10
2023-10-12T15:16:34.210Z,7.32
2023-10-12T15:19:10.109Z,7.05
2023-10-12T15:21:40.990Z,8.85
2023-10-12T15:24:12.308Z,8.57
2023-10-12T15:26:42.779Z,7.63
2023-10-12T15:29:10.690Z,22.90
2023-10-12T15:31:41.184Z,7.30
2023-10-12T15:34:10.243Z,6.15
2023-10-12T15:36:38.224Z,7.00
2023-10-12T15:39:16.623Z,7.22
2023-10-12T15:41:45.067Z,7.07
2023-10-12T15:44:13.545Z,7.03
2023-10-12T15:46:47.043Z,7.22
2023-10-12T15:49:15.114Z,7.82
2023-10-12T15:51:44.165Z,8.13
2023-10-12T15:54:13.685Z,8.15
2023-10-12T15:56:41.619Z,9.65
2023-10-12T15:59:11.206Z,11.23
2023-10-12T16:01:39.597Z,10.35
2023-10-12T16:04:09.583Z,8.30
2023-10-12T16:06:38.000Z,9.97
2023-10-12T16:09:10.835Z,8.82
2023-10-12T16:11:42.561Z,8.80
2023-10-12T16:14:11.147Z,8.90
2023-10-12T16:16:39.193Z,7.10
2023-10-12T16:19:07.235Z,7.72
2023-10-12T16:21:35.340Z,8.32
2023-10-12T16:24:06.122Z,7.97
2023-10-12T16:26:35.572Z,9.23
2023-10-12T16:29:05.703Z,11.70
2023-10-12T16:31:36.607Z,16.63
2023-10-12T16:36:33.634Z,8.80
2023-10-12T16:39:01.789Z,8.98
2023-10-12T16:41:29.819Z,9.25
2023-10-12T16:43:57.667Z,10.55
2023-10-12T16:46:26.093Z,10.50
2023-10-12T16:48:54.182Z,10.30
2023-10-12T16:51:22.016Z,11.73
2023-10-12T16:53:49.866Z,10.70
2023-10-12T16:56:17.724Z,11.40
2023-10-12T16:58:46.362Z,14.63
2023-10-12T17:01:15.947Z,12.63
2023-10-12T17:03:44.901Z,11.18
2023-10-12T17:06:12.956Z,10.52
2023-10-12T17:08:42.818Z,10.60
2023-10-12T17:11:13.232Z,12.20
2023-10-12T17:13:41.167Z,13.75
2023-10-12T17:16:09.062Z,14.52
2023-10-12T17:18:38.474Z,15.23
2023-10-12T17:21:06.340Z,16.20
2023-10-12T17:23:34.236Z,16.15
2023-10-12T17:26:02.186Z,18.42
2023-10-12T17:28:32.446Z,17.38
2023-10-12T17:31:10.083Z,17.90
2023-10-12T17:33:38.738Z,17.45
2023-10-12T17:36:18.199Z,18.50
2023-10-12T17:38:46.138Z,18.50
2023-10-12T17:41:14.024Z,22.08
2023-10-12T17:43:42.426Z,19.58
2023-10-12T17:46:11.617Z,19.10
2023-10-12T17:48:40.635Z,21.02
2023-10-12T17:51:15.578Z,22.38
2023-10-12T17:53:44.311Z,24.70
2023-10-12T17:56:12.860Z,20.23
2023-10-12T17:58:40.662Z,17.05
2023-10-12T18:01:08.711Z,16.83
2023-10-12T18:03:39.661Z,15.88
2023-10-12T18:06:17.778Z,15.27
2023-10-12T18:08:45.677Z,17.77
2023-10-12T18:11:17.339Z,16.92
2023-10-12T18:13:45.732Z,16.70
2023-10-12T18:16:15.786Z,16.58
2023-10-12T18:18:44.457Z,17.23
2023-10-12T18:21:12.274Z,16.00
2023-10-12T18:23:43.159Z,16.23
2023-10-12T18:26:15.124Z,16.33
2023-10-12T18:28:43.048Z,16.25
2023-10-12T18:31:11.818Z,15.90
2023-10-12T18:33:40.733Z,16.10
2023-10-12T18:36:09.771Z,15.38
2023-10-12T18:38:37.993Z,16.88
2023-10-12T18:41:09.905Z,16.40
2023-10-12T18:43:43.308Z,16.60
2023-10-12T18:46:11.567Z,17.23
2023-10-12T18:48:39.414Z,18.02
2023-10-12T18:51:11.044Z,15.50
2023-10-12T18:53:41.911Z,16.75
2023-10-12T18:56:11.716Z,18.27
2023-10-12T18:58:40.602Z,17.25
2023-10-12T19:01:14.959Z,18.20
2023-10-12T19:03:44.419Z,17.45
2023-10-12T19:06:14.545Z,18.52
2023-10-12T19:08:45.062Z,19.08
2023-10-12T19:11:13.456Z,18.77
2023-10-12T19:13:44.347Z,19.65
2023-10-12T19:18:40.364Z,20.48
2023-10-12T19:21:08.271Z,20.27
2023-10-12T19:23:36.487Z,21.10
2023-10-12T19:26:07.198Z,20.50
2023-10-12T19:28:38.244Z,19.13
2023-10-12T19:31:10.159Z,20.85
2023-10-12T19:33:40.169Z,21.27
2023-10-12T19:36:12.038Z,19.80
2023-10-12T19:38:41.001Z,18.85
2023-10-12T19:41:09.597Z,20.73
2023-10-12T19:43:38.335Z,19.92
2023-10-12T19:46:07.872Z,21.17
2023-10-12T19:48:36.201Z,20.23
2023-10-12T19:51:22.735Z,20.27
2023-10-12T19:53:51.763Z,19.35
2023-10-12T19:56:21.109Z,20.55
2023-10-12T19:58:51.148Z,18.75
2023-10-12T20:01:22.933Z,21.20
2023-10-12T20:03:51.578Z,21.25
2023-10-12T20:06:20.910Z,19.33
2023-10-12T20:08:49.798Z,19.63
2023-10-12T20:11:18.661Z,20.33
2023-10-12T20:13:49.382Z,20.02
2023-10-12T20:16:25.243Z,19.17
2023-10-12T20:18:53.628Z,19.45
2023-10-12T20:21:21.795Z,20.48
2023-10-12T20:23:50.020Z,21.67
2023-10-12T20:26:24.505Z,19.92
2023-10-12T20:28:52.538Z,19.73
2023-10-12T20:31:20.363Z,19.88
2023-10-12T20:33:49.367Z,20.42
2023-10-12T20:36:17.226Z,18.52
2023-10-12T20:38:47.426Z,19.27
2023-10-12T20:41:15.217Z,21.00
2023-10-12T20:43:43.049Z,18.38
2023-10-12T20:46:11.643Z,20.02
2023-10-12T20:48:40.142Z,18.40
2023-10-12T20:51:08.161Z,19.15
2023-10-12T20:53:37.189Z,19.05
2023-10-12T20:56:10.570Z,17.98
2023-10-12T20:58:45.649Z,17.70
2023-10-12T21:01:26.186Z,17.80
2023-10-12T21:03:54.976Z,17.80
2023-10-12T21:06:28.696Z,18.90
2023-10-12T21:09:17.934Z,18.23
2023-10-12T21:11:49.875Z,18.75
2023-10-12T21:14:28.404Z,18.90
2023-10-12T21:17:05.601Z,18.33
2023-10-12T21:19:46.871Z,20.35
2023-10-12T21:22:19.129Z,19.58
2023-10-12T21:24:56.030Z,18.80
2023-10-12T21:27:40.321Z,18.88
2023-10-12T21:30:08.602Z,19.25
2023-10-12T21:32:40.966Z,19.73
2023-10-12T21:35:10.481Z,18.48
2023-10-12T21:37:39.279Z,18.08
2023-10-12T21:40:26.439Z,17.30
2023-10-12T21:42:54.360Z,18.00
2023-10-12T21:45:25.251Z,18.58
2023-10-12T21:47:56.153Z,16.50
2023-10-12T21:50:26.091Z,17.15
2023-10-12T21:52:54.078Z,17.75
2023-10-12T21:55:21.953Z,16.83
2023-10-12T21:57:49.781Z,17.90
2023-10-12T22:00:33.680Z,17.20
2023-10-12T22:03:01.871Z,16.70
2023-10-12T22:05:30.005Z,16.58
2023-10-12T22:07:58.014Z,17.83
2023-10-12T22:10:30.402Z,18.02
2023-10-12T22:13:07.008Z,16.95
2023-10-12T22:15:53.633Z,17.58
2023-10-12T22:18:24.354Z,18.00
2023-10-12T22:20:58.408Z,18.83
2023-10-12T22:23:26.418Z,17.88
2023-10-12T22:25:54.238Z,17.65
2023-10-12T22:28:22.468Z,17.80
2023-10-12T22:30:54.187Z,18.48
2023-10-12T22:33:22.284Z,17.38
2023-10-12T22:36:00.618Z,17.80
2023-10-12T22:38:29.637Z,16.80
2023-10-12T22:41:01.732Z,18.33
2023-10-12T22:43:29.738Z,18.83
2023-10-12T22:45:57.722Z,17.73
2023-10-12T22:48:26.192Z,17.13
2023-10-12T22:50:54.150Z,18.33
2023-10-12T22:53:21.935Z,18.83
2023-10-12T22:55:49.694Z,18.55
2023-10-12T22:58:17.554Z,17.83
2023-10-12T23:00:45.720Z,18.00
2023-10-12T23:03:13.679Z,18.00
2023-10-12T23:05:41.790Z,19.83
2023-10-12T23:08:09.811Z,19.42
2023-10-12T23:10:40.600Z,19.83
2023-10-12T23:15:44.541Z,23.40
2023-10-12T23:18:12.667Z,25.70
2023-10-12T23:20:46.158Z,24.73
2023-10-12T23:23:14.267Z,23.45
2023-10-12T23:25:48.099Z,23.80
2023-10-12T23:28:20.491Z,23.50
2023-10-12T23:30:55.983Z,25.00
2023-10-12T23:33:26.862Z,23.83
2023-10-12T23:35:56.057Z,24.20
2023-10-12T23:38:27.624Z,23.98
2023-10-12T23:41:14.433Z,23.83
2023-10-12T23:44:01.710Z,22.70
2023-10-12T23:46:35.132Z,21.98
2023-10-12T23:49:21.919Z,25.13
2023-10-12T23:51:50.183Z,24.52
2023-10-12T23:54:27.177Z,24.17
2023-10-12T23:57:09.081Z,21.08
2023-10-12T23:59:36.944Z,20.95
